createdAt,value
2022-08-12T00:02:04.338Z,9.55
2022-08-12T00:04:47.459Z,10.20
2022-08-12T00:07:33.236Z,6.53
2022-08-12T00:10:18.810Z,6.97
2022-08-12T00:13:04.581Z,8.48
2022-08-12T00:15:52.368Z,4.78
2022-08-12T00:18:38.073Z,11.27
2022-08-12T00:21:23.776Z,4.15
2022-08-12T00:24:11.027Z,9.45
2022-08-12T00:27:00.361Z,6.43
2022-08-12T00:29:47.957Z,8.35
2022-08-12T00:32:54.495Z,5.57
2022-08-12T00:35:40.717Z,8.05
2022-08-12T00:38:26.855Z,6.22
2022-08-12T00:41:13.789Z,9.05
2022-08-12T00:43:43.893Z,5.40
2022-08-12T00:46:30.049Z,11.38
2022-08-12T00:48:58.380Z,7.85
2022-08-12T00:51:45.809Z,7.03
2022-08-12T00:54:13.126Z,7.53
2022-08-12T00:56:41.670Z,8.20
2022-08-12T00:59:09.240Z,14.18
2022-08-12T01:02:02.370Z,8.70
2022-08-12T01:04:46.188Z,10.13
2022-08-12T01:07:32.888Z,7.07
2022-08-12T01:10:19.078Z,6.90
2022-08-12T01:13:07.694Z,5.57
2022-08-12T01:15:49.521Z,8.43
2022-08-12T01:18:20.159Z,7.55
2022-08-12T01:20:52.855Z,9.98
2022-08-12T01:23:59.877Z,7.55
2022-08-12T01:26:47.919Z,5.90
2022-08-12T01:29:26.900Z,7.13
2022-08-12T01:31:59.152Z,10.65
2022-08-12T01:34:36.948Z,6.82
2022-08-12T01:37:10.292Z,8.38
2022-08-12T01:40:35.558Z,6.13
2022-08-12T01:42:51.946Z,7.30
2022-08-12T01:45:24.527Z,8.57
2022-08-12T01:48:00.706Z,9.02
2022-08-12T01:51:06.428Z,8.43
2022-08-12T01:54:04.598Z,10.85
2022-08-12T01:56:49.129Z,8.52
2022-08-12T01:59:42.663Z,4.80
2022-08-12T02:02:13.371Z,8.20
2022-08-12T02:05:23.003Z,5.25
2022-08-12T02:08:34.971Z,7.82
2022-08-12T02:11:31.480Z,8.33
2022-08-12T02:14:35.965Z,11.20
2022-08-12T02:17:56.009Z,7.85
2022-08-12T02:20:51.689Z,8.57
2022-08-12T02:23:27.112Z,8.18
2022-08-12T02:25:59.668Z,7.53
2022-08-12T02:28:27.760Z,10.93
2022-08-12T02:30:57.192Z,10.73
2022-08-12T02:33:25.252Z,7.82
2022-08-12T02:35:54.122Z,9.27
2022-08-12T02:38:23.893Z,7.63
2022-08-12T02:40:54.755Z,11.65
2022-08-12T02:43:37.913Z,7.05
2022-08-12T02:46:13.999Z,8.40
2022-08-12T02:48:52.224Z,17.23
2022-08-12T02:51:29.874Z,7.25
2022-08-12T02:54:05.026Z,8.25
2022-08-12T02:56:40.717Z,7.38
2022-08-12T02:59:17.883Z,10.80
2022-08-12T03:01:50.280Z,9.25
2022-08-12T03:04:26.765Z,8.25
2022-08-12T03:07:04.880Z,6.07
2022-08-12T03:10:04.912Z,7.80
2022-08-12T03:12:25.323Z,14.87
2022-08-12T03:14:55.139Z,6.10
2022-08-12T03:17:37.497Z,8.30
2022-08-12T03:20:10.025Z,8.48
2022-08-12T03:22:44.216Z,6.03
2022-08-12T03:25:25.165Z,6.85
2022-08-12T03:27:57.344Z,9.75
2022-08-12T03:32:56.993Z,6.68
2022-08-12T03:35:40.066Z,7.60
2022-08-12T03:38:12.428Z,7.35
2022-08-12T03:41:16.202Z,10.25
2022-08-12T03:44:26.044Z,12.30
2022-08-12T03:47:49.651Z,8.63
2022-08-12T03:50:37.012Z,9.05
2022-08-12T03:53:25.040Z,8.90
2022-08-12T03:56:11.202Z,9.00
2022-08-12T03:58:57.876Z,12.13
2022-08-12T04:01:27.397Z,10.82
2022-08-12T04:03:55.396Z,9.65
2022-08-12T04:06:34.344Z,7.43
2022-08-12T04:09:05.285Z,10.95
2022-08-12T04:12:01.362Z,10.05
2022-08-12T04:14:29.596Z,8.27
2022-08-12T04:16:57.311Z,9.45
2022-08-12T04:19:26.313Z,12.70
2022-08-12T04:22:03.970Z,8.27
2022-08-12T04:24:36.202Z,11.75
2022-08-12T04:27:09.172Z,10.80
2022-08-12T04:30:16.649Z,9.70
2022-08-12T04:32:26.017Z,11.20
2022-08-12T04:34:53.302Z,8.80
2022-08-12T04:37:20.926Z,12.32
2022-08-12T04:39:49.057Z,11.57
2022-08-12T04:42:16.293Z,18.13
2022-08-12T04:44:44.501Z,13.60
2022-08-12T04:47:14.369Z,14.50
2022-08-12T04:49:45.204Z,11.15
2022-08-12T04:52:13.447Z,11.25
2022-08-12T04:54:40.611Z,9.93
2022-08-12T04:57:09.828Z,11.63
2022-08-12T04:59:46.760Z,12.85
2022-08-12T05:02:22.148Z,14.75
2022-08-12T05:04:52.025Z,13.65
2022-08-12T05:07:20.658Z,15.20
2022-08-12T05:09:59.949Z,12.57
2022-08-12T05:12:51.320Z,13.48
2022-08-12T05:15:29.464Z,12.63
2022-08-12T05:17:59.835Z,12.43
2022-08-12T05:20:29.510Z,12.18
2022-08-12T05:23:13.816Z,16.40
2022-08-12T05:25:46.214Z,13.75
2022-08-12T05:28:14.830Z,11.20
2022-08-12T05:30:43.663Z,14.25
2022-08-12T05:33:12.254Z,13.75
2022-08-12T05:35:42.789Z,18.50
2022-08-12T05:38:30.447Z,17.58
2022-08-12T05:40:57.786Z,16.40
2022-08-12T05:43:28.833Z,13.85
2022-08-12T05:45:56.579Z,16.00
2022-08-12T05:48:24.497Z,20.35
2022-08-12T05:50:53.411Z,15.32
2022-08-12T05:53:20.711Z,21.27
2022-08-12T05:55:47.630Z,21.02
2022-08-12T05:58:14.554Z,22.33
2022-08-12T06:00:42.388Z,23.55
2022-08-12T06:03:09.423Z,20.35
2022-08-12T06:05:52.547Z,22.25
2022-08-12T06:08:23.171Z,17.23
2022-08-12T06:10:50.539Z,22.55
2022-08-12T06:13:28.526Z,27.35
2022-08-12T06:16:07.320Z,15.98
2022-08-12T06:18:35.199Z,16.88
2022-08-12T06:21:02.499Z,18.33
2022-08-12T06:23:30.352Z,20.80
2022-08-12T06:25:58.611Z,14.75
2022-08-12T06:28:26.205Z,24.30
2022-08-12T06:31:25.436Z,17.63
2022-08-12T06:34:01.203Z,13.05
2022-08-12T06:36:33.386Z,9.93
2022-08-12T06:39:01.193Z,10.85
2022-08-12T06:42:05.008Z,12.15
2022-08-12T06:44:33.968Z,8.40
2022-08-12T06:47:01.304Z,8.30
2022-08-12T06:49:33.534Z,7.63
2022-08-12T06:52:00.476Z,11.90
2022-08-12T06:54:31.919Z,9.25
2022-08-12T06:57:57.856Z,14.05
2022-08-12T06:59:48.541Z,8.60
2022-08-12T07:02:15.604Z,8.02
2022-08-12T07:04:43.414Z,15.40
2022-08-12T07:07:10.920Z,8.18
2022-08-12T07:10:03.822Z,7.40
2022-08-12T07:12:30.517Z,7.85
2022-08-12T07:14:59.213Z,8.10
2022-08-12T07:17:36.384Z,10.32
2022-08-12T07:20:29.687Z,11.95
2022-08-12T07:23:01.594Z,7.78
2022-08-12T07:25:40.609Z,8.13
2022-08-12T07:28:16.875Z,11.00
2022-08-12T07:30:46.468Z,5.55
2022-08-12T07:33:15.792Z,5.90
2022-08-12T07:35:47.734Z,6.85
2022-08-12T07:38:37.242Z,9.35
2022-08-12T07:41:15.451Z,6.03
2022-08-12T07:43:52.025Z,6.40
2022-08-12T07:46:21.856Z,7.07
2022-08-12T07:48:51.778Z,8.07
2022-08-12T07:51:25.481Z,9.10
2022-08-12T07:54:00.950Z,6.07
2022-08-12T07:56:31.645Z,8.05
2022-08-12T07:59:01.421Z,6.53
2022-08-12T08:01:29.182Z,11.55
2022-08-12T08:04:18.966Z,6.22
2022-08-12T08:06:48.373Z,7.38
2022-08-12T08:09:18.057Z,3.88
2022-08-12T08:12:03.873Z,6.75
2022-08-12T08:14:31.798Z,4.53
2022-08-12T08:17:01.411Z,8.75
2022-08-12T08:19:29.380Z,4.47
2022-08-12T08:21:58.818Z,5.93
2022-08-12T08:24:27.981Z,7.15
2022-08-12T08:26:56.996Z,9.05
2022-08-12T08:29:24.730Z,9.50
2022-08-12T08:31:58.766Z,4.78
2022-08-12T08:34:54.200Z,9.52
2022-08-12T08:37:20.904Z,8.02
2022-08-12T08:39:48.088Z,5.88
2022-08-12T08:42:33.751Z,14.98
2022-08-12T08:45:12.913Z,10.00
2022-08-12T08:47:46.831Z,11.68
2022-08-12T08:50:15.244Z,8.10
2022-08-12T08:52:47.050Z,9.10
2022-08-12T08:55:20.886Z,8.93
2022-08-12T08:57:54.003Z,5.55
2022-08-12T09:00:22.036Z,7.93
2022-08-12T09:02:59.067Z,8.25
2022-08-12T09:05:43.243Z,4.07
2022-08-12T09:14:18.545Z,3.85
2022-08-12T09:16:45.974Z,4.80
2022-08-12T09:19:27.103Z,6.47
2022-08-12T09:21:55.629Z,5.88
2022-08-12T09:24:22.671Z,12.77
2022-08-12T09:26:54.813Z,8.30
2022-08-12T09:30:08.789Z,5.75
2022-08-12T09:32:29.639Z,4.60
2022-08-12T09:34:56.853Z,2.75
2022-08-12T09:37:26.710Z,4.78
2022-08-12T09:40:03.555Z,2.95
2022-08-12T09:43:17.054Z,5.28
2022-08-12T09:46:06.781Z,8.75
2022-08-12T09:48:36.697Z,4.45
2022-08-12T09:51:10.737Z,4.50
2022-08-12T09:53:45.679Z,6.75
2022-08-12T09:56:58.316Z,7.50
2022-08-12T09:59:09.860Z,5.00
2022-08-12T10:02:43.944Z,4.95
2022-08-12T10:04:30.301Z,4.13
2022-08-12T10:06:58.072Z,3.17
2022-08-12T10:09:34.027Z,2.95
2022-08-12T10:12:31.151Z,4.22
2022-08-12T10:15:01.370Z,8.60
2022-08-12T10:17:28.455Z,6.03
2022-08-12T10:19:55.568Z,4.28
2022-08-12T10:22:39.375Z,4.18
2022-08-12T10:26:34.022Z,3.08
2022-08-12T10:28:38.203Z,8.38
2022-08-12T10:31:06.227Z,6.93
2022-08-12T10:33:43.663Z,20.30
2022-08-12T10:36:39.864Z,8.65
2022-08-12T10:40:05.746Z,12.80
2022-08-12T10:42:29.532Z,7.60
2022-08-12T10:45:07.821Z,4.60
2022-08-12T10:48:07.641Z,8.38
2022-08-12T10:50:35.351Z,4.63
2022-08-12T10:53:19.479Z,5.75
2022-08-12T10:55:50.054Z,6.32
2022-08-12T10:58:30.738Z,5.82
2022-08-12T11:01:50.374Z,8.50
2022-08-12T11:04:23.366Z,2.63
2022-08-12T11:07:05.240Z,4.63
2022-08-12T11:09:51.395Z,5.45
2022-08-12T11:12:55.939Z,7.38
2022-08-12T11:15:19.308Z,2.83
2022-08-12T11:17:54.380Z,6.28
2022-08-12T11:20:30.562Z,2.83
2022-08-12T11:23:04.299Z,7.63
2022-08-12T11:25:58.142Z,7.50
2022-08-12T11:28:34.647Z,5.57
2022-08-12T11:31:06.579Z,2.92
2022-08-12T11:34:04.729Z,5.40
2022-08-12T11:36:22.140Z,10.60
2022-08-12T11:38:51.330Z,6.50
2022-08-12T11:41:31.600Z,3.15
2022-08-12T11:44:30.766Z,4.00
2022-08-12T11:46:53.266Z,6.78
2022-08-12T11:49:31.417Z,3.80
2022-08-12T11:52:01.999Z,2.72
2022-08-12T11:54:30.301Z,3.55
2022-08-12T11:57:00.521Z,4.45
2022-08-12T12:02:20.234Z,7.15
2022-08-12T12:04:52.751Z,2.33
2022-08-12T12:08:36.314Z,3.28
2022-08-12T12:10:12.757Z,3.17
2022-08-12T12:12:41.579Z,2.40
2022-08-12T12:15:25.396Z,3.95
2022-08-12T12:18:05.631Z,6.43
2022-08-12T12:20:34.354Z,4.18
2022-08-12T12:23:01.366Z,6.32
2022-08-12T12:26:07.098Z,3.67
2022-08-12T12:28:36.589Z,3.40
2022-08-12T12:31:04.240Z,3.45
2022-08-12T12:33:57.413Z,2.05
2022-08-12T12:36:24.056Z,5.93
2022-08-12T12:38:57.063Z,5.85
2022-08-12T12:42:40.702Z,3.55
2022-08-12T12:44:13.196Z,5.63
2022-08-12T12:46:40.556Z,6.22
2022-08-12T12:49:15.247Z,4.22
2022-08-12T12:51:51.766Z,5.38
2022-08-12T12:54:29.792Z,7.05
2022-08-12T12:56:57.985Z,8.27
2022-08-12T12:59:54.662Z,4.35
2022-08-12T13:02:15.248Z,3.60
2022-08-12T13:05:00.069Z,3.63
2022-08-12T13:07:54.129Z,5.05
2022-08-12T13:10:14.292Z,2.80
2022-08-12T13:12:42.635Z,7.32
2022-08-12T13:15:45.219Z,4.03
2022-08-12T13:18:05.221Z,5.18
2022-08-12T13:20:38.019Z,3.63
2022-08-12T13:23:36.814Z,3.40
2022-08-12T13:26:01.977Z,3.53
2022-08-12T13:28:30.807Z,3.53
2022-08-12T13:30:59.525Z,4.07
2022-08-12T13:33:29.259Z,2.72
2022-08-12T13:36:18.831Z,2.47
2022-08-12T13:38:52.091Z,2.58
2022-08-12T13:41:33.129Z,7.45
2022-08-12T13:44:01.935Z,4.38
2022-08-12T13:46:28.879Z,2.97
2022-08-12T13:48:56.842Z,2.72
2022-08-12T13:51:25.131Z,3.50
2022-08-12T13:54:11.653Z,4.00
2022-08-12T13:56:41.073Z,1.38
2022-08-12T13:59:08.870Z,4.03
2022-08-12T14:01:40.652Z,6.28
2022-08-12T14:04:11.446Z,6.20
2022-08-12T14:06:40.449Z,3.58
2022-08-12T14:09:17.384Z,4.07
2022-08-12T14:11:53.982Z,5.22
2022-08-12T14:14:27.724Z,2.63
2022-08-12T14:17:00.273Z,5.38
2022-08-12T14:19:31.672Z,3.08
2022-08-12T14:22:04.981Z,2.22
2022-08-12T14:24:40.593Z,3.28
2022-08-12T14:27:10.514Z,3.78
2022-08-12T14:30:04.512Z,4.13
2022-08-12T14:32:34.863Z,5.70
2022-08-12T14:35:07.070Z,4.75
2022-08-12T14:37:54.797Z,2.42
2022-08-12T14:40:29.744Z,1.65
2022-08-12T14:42:58.568Z,2.22
2022-08-12T14:45:44.471Z,5.22
2022-08-12T14:48:15.505Z,5.68
2022-08-12T14:51:03.105Z,3.47
2022-08-12T14:57:05.760Z,5.88
2022-08-12T14:59:26.739Z,3.13
2022-08-12T15:02:20.556Z,1.85
2022-08-12T15:04:59.595Z,2.75
2022-08-12T15:07:33.405Z,2.83
2022-08-12T15:10:13.548Z,2.90
2022-08-12T15:12:40.891Z,3.17
2022-08-12T15:15:10.412Z,5.05
2022-08-12T15:17:39.698Z,4.45
2022-08-12T15:20:31.365Z,4.32
2022-08-12T15:22:57.889Z,3.03
2022-08-12T15:25:28.670Z,4.07
2022-08-12T15:28:04.066Z,3.90
2022-08-12T15:30:40.771Z,5.13
2022-08-12T15:33:12.637Z,4.18
2022-08-12T15:35:52.792Z,4.70
2022-08-12T15:38:27.735Z,3.50
2022-08-12T15:40:56.741Z,4.95
2022-08-12T15:44:16.925Z,1.77
2022-08-12T15:46:16.300Z,3.08
2022-08-12T15:48:47.621Z,4.53
2022-08-12T15:54:33.472Z,6.65
2022-08-12T15:57:08.300Z,6.88
2022-08-12T16:00:00.563Z,3.92
2022-08-12T16:02:27.022Z,3.70
2022-08-12T16:04:56.487Z,4.53
2022-08-12T16:07:25.993Z,5.47
2022-08-12T16:10:08.621Z,1.70
2022-08-12T16:12:55.022Z,2.47
2022-08-12T16:15:26.257Z,2.85
2022-08-12T16:18:18.991Z,2.95
2022-08-12T16:20:46.933Z,7.07
2022-08-12T16:23:36.029Z,3.22
2022-08-12T16:26:15.080Z,4.13
2022-08-12T16:28:47.143Z,2.38
2022-08-12T16:31:23.210Z,8.80
2022-08-12T16:34:00.012Z,5.75
2022-08-12T16:36:31.727Z,4.57
2022-08-12T16:39:01.713Z,1.58
2022-08-12T16:41:38.127Z,1.77
2022-08-12T16:44:08.959Z,2.33
2022-08-12T16:46:37.479Z,2.63
2022-08-12T16:49:08.960Z,1.40
2022-08-12T16:51:46.336Z,2.72
2022-08-12T16:54:16.574Z,3.28
2022-08-12T16:56:57.882Z,3.15
2022-08-12T16:59:30.870Z,1.88
2022-08-12T17:02:31.567Z,3.90
2022-08-12T17:05:03.563Z,4.68
2022-08-12T17:07:36.812Z,1.10
2022-08-12T17:10:11.922Z,5.97
2022-08-12T17:12:39.382Z,3.55
2022-08-12T17:15:41.277Z,3.22
2022-08-12T17:18:39.490Z,3.65
2022-08-12T17:20:47.356Z,2.45
2022-08-12T17:23:17.400Z,1.10
2022-08-12T17:25:50.899Z,7.43
2022-08-12T17:28:20.048Z,1.80
2022-08-12T17:30:54.467Z,2.15
2022-08-12T17:33:34.198Z,1.55
2022-08-12T17:36:03.121Z,3.03
2022-08-12T17:38:30.698Z,2.58
2022-08-12T17:40:58.835Z,3.55
2022-08-12T17:43:52.141Z,2.58
2022-08-12T17:46:23.665Z,3.58
2022-08-12T17:48:59.525Z,2.92
2022-08-12T17:51:31.619Z,3.05
2022-08-12T17:56:43.073Z,3.00
2022-08-12T17:59:12.090Z,3.13
2022-08-12T18:01:44.461Z,1.83
2022-08-12T18:04:22.170Z,5.93
2022-08-12T18:07:02.968Z,2.65
2022-08-12T18:09:36.519Z,4.00
2022-08-12T18:12:34.795Z,2.67
2022-08-12T18:15:08.849Z,2.30
2022-08-12T18:17:46.947Z,7.10
2022-08-12T18:20:17.505Z,5.30
2022-08-12T18:22:46.731Z,2.92
2022-08-12T18:26:14.728Z,3.28
2022-08-12T18:28:27.502Z,7.03
2022-08-12T18:31:03.103Z,4.55
2022-08-12T18:33:43.845Z,2.22
2022-08-12T18:36:13.943Z,3.67
2022-08-12T18:38:45.002Z,3.55
2022-08-12T18:41:33.605Z,1.55
2022-08-12T18:46:55.253Z,4.40
2022-08-12T18:49:39.643Z,6.47
2022-08-12T18:52:11.363Z,3.08
2022-08-12T18:54:49.083Z,3.53
2022-08-12T18:57:46.088Z,3.33
2022-08-12T19:00:22.238Z,3.78
2022-08-12T19:02:53.333Z,4.82
2022-08-12T19:05:20.873Z,5.35
2022-08-12T19:07:59.885Z,6.47
2022-08-12T19:10:30.552Z,11.32
2022-08-12T19:13:23.250Z,5.50
2022-08-12T19:15:57.452Z,6.80
2022-08-12T19:18:30.811Z,7.22
2022-08-12T19:21:11.789Z,6.22
2022-08-12T19:23:43.919Z,8.20
2022-08-12T19:26:12.536Z,5.60
2022-08-12T19:28:41.418Z,12.13
2022-08-12T19:31:56.387Z,7.35
2022-08-12T19:35:07.041Z,9.73
2022-08-12T19:37:22.830Z,7.82
2022-08-12T19:40:09.685Z,10.35
2022-08-12T19:43:00.597Z,11.60
2022-08-12T19:45:43.459Z,5.18
2022-08-12T19:48:20.708Z,7.22
2022-08-12T19:50:52.386Z,10.80
2022-08-12T19:53:24.549Z,8.93
2022-08-12T19:55:53.532Z,15.10
2022-08-12T19:58:21.668Z,5.05
2022-08-12T20:00:56.383Z,4.60
2022-08-12T20:03:38.221Z,7.47
2022-08-12T20:06:14.056Z,6.15
2022-08-12T20:08:48.628Z,4.18
2022-08-12T20:12:14.441Z,5.15
2022-08-12T20:14:07.212Z,7.38
2022-08-12T20:19:53.275Z,5.43
2022-08-12T20:22:24.016Z,5.10
2022-08-12T20:25:00.922Z,6.88
2022-08-12T20:28:02.405Z,5.82
2022-08-12T20:30:37.741Z,3.78
2022-08-12T20:33:18.696Z,4.70
2022-08-12T20:36:13.394Z,5.47
2022-08-12T20:38:39.749Z,4.55
2022-08-12T20:41:17.715Z,4.25
2022-08-12T20:43:50.677Z,2.80
2022-08-12T20:46:20.100Z,2.78
2022-08-12T20:48:54.785Z,3.60
2022-08-12T20:51:22.848Z,5.22
2022-08-12T20:53:57.719Z,5.30
2022-08-12T20:56:36.884Z,4.80
2022-08-12T20:59:11.630Z,3.33
2022-08-12T21:01:48.349Z,4.53
2022-08-12T21:04:36.460Z,5.57
2022-08-12T21:07:09.187Z,4.28
2022-08-12T21:09:44.722Z,5.55
2022-08-12T21:12:27.399Z,4.45
2022-08-12T21:15:18.099Z,4.60
2022-08-12T21:18:11.221Z,4.57
2022-08-12T21:20:50.636Z,5.78
2022-08-12T21:23:20.948Z,3.90
2022-08-12T21:25:49.002Z,9.43
2022-08-12T21:28:18.996Z,11.02
2022-08-12T21:31:11.484Z,7.47
2022-08-12T21:33:58.738Z,4.55
2022-08-12T21:36:34.825Z,3.47
2022-08-12T21:39:18.831Z,4.72
2022-08-12T21:41:51.559Z,6.40
2022-08-12T21:44:24.656Z,6.13
2022-08-12T21:47:21.163Z,3.63
2022-08-12T21:49:53.863Z,4.60
2022-08-12T21:52:28.209Z,8.40
2022-08-12T21:55:04.219Z,8.27
2022-08-12T21:57:51.435Z,4.50
2022-08-12T22:00:33.279Z,3.05
2022-08-12T22:04:10.891Z,4.75
2022-08-12T22:06:30.654Z,7.97
2022-08-12T22:09:02.677Z,9.32
2022-08-12T22:11:41.499Z,7.82
2022-08-12T22:14:18.059Z,5.73
2022-08-12T22:16:52.694Z,3.13
2022-08-12T22:19:20.947Z,4.53
2022-08-12T22:21:54.799Z,5.03
2022-08-12T22:24:26.381Z,6.20
2022-08-12T22:26:58.174Z,6.32
2022-08-12T22:29:43.901Z,6.75
2022-08-12T22:32:13.256Z,6.45
2022-08-12T22:34:44.816Z,6.15
2022-08-12T22:37:19.591Z,5.53
2022-08-12T22:39:49.022Z,5.43
2022-08-12T22:42:36.054Z,4.07
2022-08-12T22:45:23.052Z,6.25
2022-08-12T22:47:55.636Z,4.90
2022-08-12T22:50:29.400Z,4.13
2022-08-12T22:53:16.088Z,3.95
2022-08-12T22:55:59.809Z,6.43
2022-08-12T22:58:40.549Z,4.00
2022-08-12T23:01:10.823Z,5.38
2022-08-12T23:03:48.930Z,4.93
2022-08-12T23:06:23.686Z,5.20
2022-08-12T23:08:52.000Z,2.95
2022-08-12T23:11:23.352Z,2.88
2022-08-12T23:14:00.817Z,2.75
2022-08-12T23:16:33.379Z,2.95
2022-08-12T23:19:38.131Z,5.55
2022-08-12T23:23:05.844Z,2.85
2022-08-12T23:24:56.704Z,3.08
2022-08-12T23:27:52.159Z,4.53
2022-08-12T23:30:32.050Z,4.28
2022-08-12T23:33:19.809Z,3.33
2022-08-12T23:35:59.313Z,4.10
2022-08-12T23:38:32.762Z,8.95
2022-08-12T23:41:02.430Z,3.90
2022-08-12T23:43:40.045Z,3.85
2022-08-12T23:46:09.684Z,3.30
2022-08-12T23:48:37.707Z,6.63
2022-08-12T23:51:22.614Z,10.05
2022-08-12T23:54:00.088Z,6.22
2022-08-12T23:56:33.773Z,7.10
2022-08-12T23:59:10.154Z,7.78
